Time;durP1;ratioP1;P1;durP2;ratioP2;P2;SDS_P1;SDS_P2;PMS_P1;PMS_P2;Temp;Humidity;BMP_temperature;BMP_pressure;BME280_temperature;BME280_humidity;BME280_pressure;Samples;Min_cycle;Max_cycle;Signal;HPM_P1;HPM_P2
2023/08/26 00:02:10;;;;;;;8.23;5.30;;;;;;;29.62;53.58;99867.38;4897763;29;20414;-70
2023/08/26 00:04:38;;;;;;;7.07;5.13;;;;;;;29.60;53.76;99853.03;4897023;29;20066;-70
2023/08/26 00:07:06;;;;;;;7.35;4.85;;;;;;;29.59;53.65;99859.59;4897321;29;20451;-70
2023/08/26 00:09:34;;;;;;;8.55;4.88;;;;;;;29.59;53.83;99853.28;4880579;29;20471;-70
2023/08/26 00:12:04;;;;;;;8.75;5.38;;;;;;;29.56;54.04;99849.06;4880598;29;20113;-70
2023/08/26 00:14:33;;;;;;;8.40;4.97;;;;;;;29.56;54.03;99849.06;4897328;29;20059;-70
2023/08/26 00:17:01;;;;;;;7.95;5.20;;;;;;;29.54;53.81;99840.22;4897581;29;20048;-70
2023/08/26 00:19:31;;;;;;;7.55;4.93;;;;;;;29.54;53.88;99844.88;4897217;29;20143;-70
2023/08/26 00:22:00;;;;;;;8.40;4.95;;;;;;;29.53;53.62;99849.53;4897096;29;20550;-68
2023/08/26 00:24:28;;;;;;;7.95;5.00;;;;;;;29.53;54.03;99852.28;4897111;29;20091;-69
2023/08/26 00:26:58;;;;;;;9.50;5.47;;;;;;;29.51;53.91;99854.41;4897722;29;20056;-70
2023/08/26 00:29:28;;;;;;;9.90;5.20;;;;;;;29.51;53.85;99851.66;4897046;29;20063;-70
2023/08/26 00:31:57;;;;;;;7.95;4.80;;;;;;;29.51;54.26;99848.06;4897110;29;20048;-69
2023/08/26 00:34:25;;;;;;;8.85;4.90;;;;;;;29.50;54.10;99852.72;4896838;29;20053;-69
2023/08/26 00:36:53;;;;;;;7.30;5.13;;;;;;;29.49;54.10;99852.94;4895476;29;20056;-70
2023/08/26 00:39:22;;;;;;;9.27;5.10;;;;;;;29.46;54.45;99848.72;4896465;29;20063;-69
2023/08/26 00:41:53;;;;;;;8.45;5.07;;;;;;;29.46;54.31;99848.72;4896716;29;20494;-69
2023/08/26 00:44:22;;;;;;;8.77;5.05;;;;;;;29.45;54.49;99852.53;4896821;29;20083;-69
2023/08/26 00:46:52;;;;;;;7.47;4.70;;;;;;;29.45;54.11;99852.53;4896797;29;20136;-69
2023/08/26 00:49:20;;;;;;;9.85;5.53;;;;;;;29.41;54.45;99840.28;4896846;29;20092;-70
2023/08/26 00:51:48;;;;;;;7.22;5.15;;;;;;;29.44;54.56;99845.34;4896872;29;20120;-70
2023/08/26 00:54:17;;;;;;;8.00;5.30;;;;;;;29.43;54.33;99851.06;4896805;29;20070;-69
2023/08/26 00:56:46;;;;;;;7.53;5.10;;;;;;;29.41;54.36;99848.53;4896469;29;20486;-70
2023/08/26 00:59:14;;;;;;;8.63;5.60;;;;;;;29.41;54.50;99856.78;4896617;29;20052;-69
2023/08/26 01:01:44;;;;;;;8.82;5.25;;;;;;;29.39;54.80;99853.41;4896442;29;20058;-69
2023/08/26 01:04:16;;;;;;;9.13;5.70;;;;;;;29.37;54.67;99858.31;4896340;29;20065;-69
2023/08/26 01:06:44;;;;;;;8.15;4.93;;;;;;;29.37;54.59;99866.53;4896513;29;20053;-69
2023/08/26 01:09:12;;;;;;;6.85;4.80;;;;;;;29.32;54.59;99869.94;4896483;29;20049;-69
2023/08/26 01:11:49;;;;;;;8.07;5.05;;;;;;;29.35;54.46;99879.66;4896371;29;20612;-69
2023/08/26 01:14:23;;;;;;;9.82;5.45;;;;;;;29.36;54.84;99881.34;4896698;29;20048;-69
2023/08/26 01:16:51;;;;;;;8.75;5.50;;;;;;;29.35;54.67;99891.50;4896201;29;20131;-69
2023/08/26 01:19:31;;;;;;;7.70;5.15;;;;;;;29.35;54.95;99896.16;4896396;29;20052;-70
2023/08/26 01:22:03;;;;;;;6.93;4.47;;;;;;;29.34;54.72;99889.81;4896365;29;20052;-70
2023/08/26 01:24:34;;;;;;;8.63;4.83;;;;;;;29.34;54.96;99886.22;4896330;29;20088;-69
2023/08/26 01:27:02;;;;;;;8.50;5.07;;;;;;;29.34;54.64;99891.72;4896057;29;20055;-69
2023/08/26 01:29:30;;;;;;;7.28;4.97;;;;;;;29.33;54.74;99888.09;4896160;29;20493;-70
2023/08/26 01:32:09;;;;;;;8.23;4.95;;;;;;;29.33;54.90;99892.75;4896380;29;20056;-69
2023/08/26 01:34:39;;;;;;;9.85;5.22;;;;;;;29.32;54.84;99891.91;4896353;29;20139;-70
2023/08/26 01:37:10;;;;;;;8.18;4.80;;;;;;;29.32;54.99;99896.56;4896167;29;20052;-69
2023/08/26 01:39:41;;;;;;;8.32;4.82;;;;;;;29.31;54.74;99890.25;4896027;29;20087;-70
2023/08/26 01:42:12;;;;;;;7.80;5.10;;;;;;;29.30;55.17;99891.31;4896400;29;20573;-70
2023/08/26 01:44:41;;;;;;;8.03;4.97;;;;;;;29.29;55.20;99883.28;4896279;29;20056;-69
2023/08/26 01:47:09;;;;;;;8.05;4.82;;;;;;;29.28;55.21;99879.72;4896110;29;20060;-70
2023/08/26 01:49:38;;;;;;;6.93;4.57;;;;;;;29.28;54.95;99876.13;4895987;29;20498;-70
2023/08/26 01:52:06;;;;;;;6.70;4.75;;;;;;;29.27;55.38;99866.22;4898589;29;20048;-70
2023/08/26 01:54:34;;;;;;;9.00;4.88;;;;;;;29.24;55.45;99852.91;4900341;29;20112;-70
2023/08/26 01:57:04;;;;;;;7.28;4.30;;;;;;;29.22;55.32;99846.78;4900054;29;20418;-70
2023/08/26 01:59:32;;;;;;;8.40;5.10;;;;;;;29.23;55.14;99853.97;4899932;29;20044;-70
2023/08/26 02:02:01;;;;;;;9.23;5.10;;;;;;;29.21;55.46;99842.38;4899854;29;20116;-70
2023/08/26 02:04:29;;;;;;;9.50;4.93;;;;;;;29.20;55.32;99843.44;4899742;29;20116;-70
2023/08/26 02:06:57;;;;;;;7.55;4.75;;;;;;;29.19;55.54;99848.09;4899669;29;20056;-70
2023/08/26 02:09:25;;;;;;;8.07;4.53;;;;;;;29.18;55.42;99845.56;4899862;29;20132;-69
2023/08/26 02:11:54;;;;;;;8.48;4.68;;;;;;;29.19;55.52;99847.25;4899820;29;20075;-70
2023/08/26 02:14:23;;;;;;;6.30;4.70;;;;;;;29.17;55.29;99843.91;4899717;29;20087;-70
2023/08/26 02:16:51;;;;;;;7.45;4.82;;;;;;;29.17;55.61;99838.41;4899336;29;20052;-70
2023/08/26 02:19:20;;;;;;;8.15;4.82;;;;;;;29.15;55.51;99840.53;4899265;29;20418;-70
2023/08/26 02:21:48;;;;;;;9.50;4.93;;;;;;;29.16;55.81;99836.72;4899243;29;20056;-70
2023/08/26 02:24:16;;;;;;;9.27;5.18;;;;;;;29.14;55.61;99833.34;4899313;29;20048;-69
2023/08/26 02:26:44;;;;;;;7.25;4.50;;;;;;;29.12;55.79;99819.84;4899418;29;20391;-71
2023/08/26 02:29:12;;;;;;;10.90;5.20;;;;;;;29.11;55.69;99823.66;4899256;29;20048;-70
2023/08/26 02:31:42;;;;;;;6.78;5.00;;;;;;;29.10;55.75;99824.72;4899198;29;20104;-70
2023/08/26 02:34:10;;;;;;;7.65;5.05;;;;;;;29.09;55.99;99825.78;4899102;29;20072;-70
2023/08/26 02:36:38;;;;;;;6.97;4.93;;;;;;;29.08;55.72;99822.19;4899248;29;20084;-70
2023/08/26 02:39:06;;;;;;;9.20;4.60;;;;;;;29.03;55.96;99822.00;4899158;29;20084;-70
2023/08/26 02:41:35;;;;;;;7.35;4.93;;;;;;;29.06;55.84;99827.06;4899220;29;20053;-70
2023/08/26 02:44:03;;;;;;;6.72;5.03;;;;;;;29.05;56.06;99825.41;4898939;29;20048;-70
2023/08/26 02:46:31;;;;;;;7.68;4.80;;;;;;;29.04;56.04;99818.19;4898936;29;20136;-70
2023/08/26 02:49:01;;;;;;;6.80;4.85;;;;;;;29.04;56.05;99811.88;4898806;29;20052;-70
2023/08/26 02:51:29;;;;;;;6.05;4.60;;;;;;;29.02;56.04;99820.31;4898790;29;20622;-70
2023/08/26 02:53:57;;;;;;;6.70;4.50;;;;;;;29.03;56.23;99830.25;4898747;29;20059;-70
2023/08/26 02:56:26;;;;;;;6.75;4.95;;;;;;;29.01;55.75;99839.78;4898649;29;20566;-70
2023/08/26 02:58:54;;;;;;;6.40;4.63;;;;;;;29.01;56.03;99829.63;4898705;29;20049;-70
2023/08/26 03:01:24;;;;;;;8.52;5.25;;;;;;;29.00;56.26;99836.19;4899071;29;20099;-70
2023/08/26 03:03:52;;;;;;;7.25;5.25;;;;;;;28.98;55.95;99830.09;4897734;29;20045;-71
2023/08/26 03:06:22;;;;;;;7.78;4.72;;;;;;;28.99;56.13;99837.25;4898596;29;20052;-70
2023/08/26 03:08:50;;;;;;;7.72;5.00;;;;;;;28.97;56.13;99828.41;4898550;29;20076;-70
2023/08/26 03:11:18;;;;;;;6.93;4.70;;;;;;;28.97;55.93;99838.56;4898343;29;20121;-70
2023/08/26 03:13:46;;;;;;;9.88;5.32;;;;;;;28.95;56.02;99836.03;4898364;29;20059;-70
2023/08/26 03:16:15;;;;;;;6.75;4.70;;;;;;;28.95;55.94;99841.53;4898512;29;20076;-69
2023/08/26 03:18:43;;;;;;;6.45;4.70;;;;;;;28.94;56.42;99836.22;4898674;29;20045;-70
2023/08/26 03:21:11;;;;;;;7.97;4.60;;;;;;;28.93;56.28;99842.78;4898314;29;20562;-69
2023/08/26 03:23:40;;;;;;;6.78;4.28;;;;;;;28.94;56.31;99842.56;4898261;29;20049;-70
2023/08/26 03:26:09;;;;;;;7.70;4.57;;;;;;;28.92;56.49;99832.88;4898015;29;20063;-70
2023/08/26 03:28:37;;;;;;;6.05;4.72;;;;;;;28.91;56.45;99839.44;4898114;29;20127;-69
2023/08/26 03:31:05;;;;;;;7.47;4.85;;;;;;;28.89;56.50;99836.91;4897954;29;20491;-69
2023/08/26 03:33:35;;;;;;;7.07;4.55;;;;;;;28.89;56.15;99838.81;4898242;29;20052;-69
2023/08/26 03:36:04;;;;;;;6.78;4.70;;;;;;;28.88;56.57;99829.72;4898468;29;20048;-70
2023/08/26 03:38:33;;;;;;;7.68;5.00;;;;;;;28.87;56.55;99828.03;4897983;29;20045;-69
2023/08/26 03:41:04;;;;;;;7.88;4.90;;;;;;;28.86;56.66;99829.09;4897868;29;20418;-69
2023/08/26 03:43:32;;;;;;;7.43;4.43;;;;;;;28.85;56.44;99827.38;4898956;29;20108;-70
2023/08/26 03:46:03;;;;;;;7.90;5.47;;;;;;;28.83;56.63;99826.78;4897885;29;20447;-69
2023/08/26 03:48:31;;;;;;;8.40;4.55;;;;;;;28.82;56.81;99830.56;4897675;29;20638;-69
2023/08/26 03:51:00;;;;;;;7.55;4.70;;;;;;;28.83;56.65;99834.16;4897648;29;20072;-69
2023/08/26 03:53:28;;;;;;;9.63;4.55;;;;;;;28.79;56.50;99822.78;4897527;29;20063;-69
2023/08/26 03:55:56;;;;;;;6.97;4.75;;;;;;;28.80;56.90;99828.06;4897816;29;20054;-70
2023/08/26 03:58:26;;;;;;;7.82;4.82;;;;;;;28.79;56.91;99834.63;4897715;29;20052;-70
2023/08/26 04:01:01;;;;;;;8.60;5.10;;;;;;;28.78;56.63;99829.34;4897516;29;20049;-70
2023/08/26 04:03:29;;;;;;;6.80;4.80;;;;;;;28.77;56.72;99831.25;4897673;29;20483;-70
2023/08/26 04:05:59;;;;;;;7.72;4.47;;;;;;;28.75;56.58;99838.00;4897529;29;20067;-70
2023/08/26 04:08:28;;;;;;;7.25;4.47;;;;;;;28.76;56.87;99834.22;4897312;29;20424;-70
2023/08/26 04:10:57;;;;;;;7.85;4.63;;;;;;;28.75;57.10;99844.34;4897111;29;20053;-70
2023/08/26 04:13:27;;;;;;;5.93;4.38;;;;;;;28.72;57.21;99833.81;4897293;29;20058;-70
2023/08/26 04:15:57;;;;;;;8.23;5.05;;;;;;;28.73;57.16;99838.22;4896312;29;20063;-69
2023/08/26 04:18:25;;;;;;;7.05;4.90;;;;;;;28.73;56.98;99842.88;4897049;29;20633;-70
2023/08/26 04:20:54;;;;;;;6.95;4.60;;;;;;;28.71;57.04;99839.53;4897089;29;20056;-70
2023/08/26 04:23:22;;;;;;;6.63;4.65;;;;;;;28.71;57.13;99850.50;4897265;29;20506;-70
2023/08/26 04:25:52;;;;;;;8.07;4.78;;;;;;;28.68;57.31;99851.78;4897012;29;20487;-70
2023/08/26 04:28:20;;;;;;;7.18;4.70;;;;;;;28.69;57.27;99852.63;4897132;29;20049;-70
2023/08/26 04:30:49;;;;;;;8.57;5.25;;;;;;;28.68;57.02;99856.44;4896868;29;20056;-70
2023/08/26 04:33:19;;;;;;;6.50;4.65;;;;;;;28.67;57.27;99852.84;4896839;29;20057;-70
2023/08/26 04:35:47;;;;;;;6.95;4.68;;;;;;;28.66;57.23;99850.31;4897171;29;20147;-70
2023/08/26 04:38:15;;;;;;;6.75;4.35;;;;;;;28.65;57.26;99846.72;4897066;29;20116;-70
2023/08/26 04:40:43;;;;;;;7.03;4.90;;;;;;;28.64;56.99;99836.81;4896838;29;20048;-70
2023/08/26 04:43:12;;;;;;;7.43;4.70;;;;;;;28.64;57.27;99846.94;4896876;29;20048;-70
2023/08/26 04:45:40;;;;;;;9.05;4.93;;;;;;;28.61;57.32;99842.75;4896763;29;20144;-70
2023/08/26 04:48:10;;;;;;;6.63;4.57;;;;;;;28.60;57.11;99840.22;4896880;29;20056;-70
2023/08/26 04:50:40;;;;;;;7.68;5.00;;;;;;;28.61;57.24;99844.66;4896717;29;20140;-70
2023/08/26 04:53:08;;;;;;;6.53;4.63;;;;;;;28.62;57.32;99846.31;4896572;29;20049;-70
2023/08/26 04:55:37;;;;;;;6.72;4.72;;;;;;;28.60;57.11;99852.03;4896658;29;20052;-71
2023/08/26 04:58:08;;;;;;;7.78;4.90;;;;;;;28.60;57.29;99854.78;4896759;29;20052;-70
2023/08/26 05:00:36;;;;;;;8.65;4.88;;;;;;;28.58;57.25;99845.94;4896724;29;20494;-71
2023/08/26 05:03:05;;;;;;;10.57;4.90;;;;;;;28.58;57.46;99850.59;4896796;29;20048;-69
2023/08/26 05:05:35;;;;;;;6.47;4.68;;;;;;;28.58;57.50;99839.59;4896573;29;20056;-70
2023/08/26 05:08:03;;;;;;;7.32;4.97;;;;;;;28.56;57.35;99842.53;4896691;29;20469;-69
2023/08/26 05:10:31;;;;;;;7.85;4.80;;;;;;;28.55;57.15;99843.59;4896457;29;20083;-70
2023/08/26 05:12:59;;;;;;;7.13;4.70;;;;;;;28.57;57.40;99849.75;4896383;29;20052;-69
2023/08/26 05:15:28;;;;;;;6.90;4.70;;;;;;;28.54;57.63;99841.94;4896442;29;20048;-70
2023/08/26 05:17:56;;;;;;;7.35;4.85;;;;;;;28.56;57.12;99850.78;4896540;29;20523;-70
2023/08/26 05:20:27;;;;;;;7.60;5.20;;;;;;;28.55;57.28;99848.25;4896464;29;20087;-69
2023/08/26 05:22:57;;;;;;;7.97;4.85;;;;;;;28.55;57.31;99848.25;4896554;29;20060;-69
2023/08/26 05:25:26;;;;;;;6.63;4.70;;;;;;;28.55;57.18;99842.75;4896323;29;20084;-69
2023/08/26 05:27:54;;;;;;;8.07;4.97;;;;;;;28.54;57.53;99846.56;4900290;29;20048;-70
2023/08/26 05:30:23;;;;;;;7.03;4.90;;;;;;;28.52;57.54;99842.16;4900360;29;20099;-70
2023/08/26 05:32:51;;;;;;;7.93;4.60;;;;;;;28.52;57.44;99836.66;4900237;29;20078;-70
2023/08/26 05:35:19;;;;;;;6.25;4.57;;;;;;;28.53;57.28;99848.47;4900183;29;20052;-70
2023/08/26 05:37:47;;;;;;;7.22;4.72;;;;;;;28.52;57.42;99847.63;4900076;29;20044;-70
2023/08/26 05:40:17;;;;;;;8.00;5.05;;;;;;;28.52;57.13;99842.16;4900084;29;20052;-70
2023/08/26 05:42:45;;;;;;;6.47;4.97;;;;;;;28.51;57.07;99848.69;4900311;29;20048;-69
2023/08/26 05:45:13;;;;;;;7.88;5.10;;;;;;;28.51;57.18;99854.19;4900078;29;20087;-70
2023/08/26 05:47:41;;;;;;;7.28;4.60;;;;;;;28.51;57.31;99856.09;4900006;29;20104;-70
2023/08/26 05:50:10;;;;;;;8.93;5.20;;;;;;;28.51;57.09;99862.41;4899786;29;20601;-70
2023/08/26 05:52:38;;;;;;;7.63;5.03;;;;;;;28.50;56.85;99858.00;4899702;29;20774;-71
2023/08/26 05:55:09;;;;;;;8.48;4.93;;;;;;;28.50;57.13;99858.00;4900113;29;20049;-70
2023/08/26 05:57:39;;;;;;;7.25;4.78;;;;;;;28.49;57.22;99863.69;4900019;29;20059;-70
2023/08/26 06:00:08;;;;;;;8.02;4.60;;;;;;;28.49;57.35;99864.53;4899799;29;20105;-70
2023/08/26 06:02:37;;;;;;;6.93;4.63;;;;;;;28.48;57.20;99865.59;4900253;29;20135;-70
2023/08/26 06:05:05;;;;;;;6.97;5.30;;;;;;;28.49;57.23;99867.28;4899463;29;20558;-70
2023/08/26 06:07:34;;;;;;;8.30;4.60;;;;;;;28.48;57.54;99868.34;4899533;29;20049;-70
2023/08/26 06:10:03;;;;;;;6.72;4.90;;;;;;;28.48;56.98;99868.34;4899639;29;20048;-71
2023/08/26 06:12:31;;;;;;;7.70;5.10;;;;;;;28.48;56.95;99868.34;4899433;29;20131;-70
2023/08/26 06:15:01;;;;;;;8.38;5.30;;;;;;;28.49;57.34;99867.28;4899457;29;20084;-70
2023/08/26 06:17:29;;;;;;;8.02;5.07;;;;;;;28.48;57.07;99862.88;4899410;29;20384;-70
2023/08/26 06:19:57;;;;;;;7.53;5.30;;;;;;;28.48;57.15;99870.25;4899297;29;20502;-70
2023/08/26 06:22:25;;;;;;;8.27;5.00;;;;;;;28.48;56.86;99868.34;4899506;29;20434;-70
2023/08/26 06:24:53;;;;;;;8.77;5.10;;;;;;;28.48;56.95;99871.09;4899481;29;20594;-70
2023/08/26 06:27:23;;;;;;;6.85;4.63;;;;;;;28.47;56.98;99880.38;4899235;29;20135;-70
2023/08/26 06:29:53;;;;;;;8.07;5.03;;;;;;;28.48;57.14;99878.47;4899284;29;20056;-70
2023/08/26 06:32:23;;;;;;;7.32;5.05;;;;;;;28.47;56.74;99888.63;4898997;29;20052;-70
2023/08/26 06:34:51;;;;;;;6.70;4.97;;;;;;;28.47;56.99;99885.00;4899224;29;20053;-70
2023/08/26 06:37:19;;;;;;;7.82;5.18;;;;;;;28.47;56.48;99885.88;4898489;29;20053;-70
2023/08/26 06:39:48;;;;;;;8.55;5.10;;;;;;;28.46;56.87;99886.91;4898858;29;20055;-70
2023/08/26 06:42:16;;;;;;;10.27;5.28;;;;;;;28.44;56.50;99889.03;4899086;29;20048;-70
2023/08/26 06:44:44;;;;;;;9.68;5.20;;;;;;;28.45;56.57;99885.22;4898872;29;20473;-70
2023/08/26 06:47:12;;;;;;;8.88;5.30;;;;;;;28.46;56.21;99891.56;4898877;29;20048;-70
2023/08/26 06:49:42;;;;;;;7.35;4.85;;;;;;;28.45;56.31;99885.22;4898691;29;20059;-70
2023/08/26 06:52:10;;;;;;;9.43;5.20;;;;;;;28.46;56.71;99881.41;4898919;29;20088;-71
2023/08/26 06:54:38;;;;;;;9.85;5.35;;;;;;;28.46;56.71;99886.91;4898884;29;20044;-71
2023/08/26 06:57:06;;;;;;;8.27;5.10;;;;;;;28.47;56.28;99894.09;4898779;29;20083;-71
2023/08/26 06:59:34;;;;;;;10.23;5.35;;;;;;;28.46;56.50;99886.91;4898476;29;20051;-71
2023/08/26 07:02:05;;;;;;;9.27;5.05;;;;;;;28.48;56.28;99895.78;4898508;29;20127;-71
2023/08/26 07:04:34;;;;;;;7.32;4.85;;;;;;;28.48;56.14;99890.28;4898403;29;20104;-70
2023/08/26 07:07:03;;;;;;;8.50;5.22;;;;;;;28.48;56.26;99884.81;4898468;29;20053;-70
2023/08/26 07:09:31;;;;;;;8.82;5.47;;;;;;;28.48;56.32;99890.28;4898835;29;20041;-69
2023/08/26 07:12:01;;;;;;;8.05;5.60;;;;;;;28.50;56.26;99890.06;4898619;29;20067;-70
2023/08/26 07:14:30;;;;;;;9.35;5.65;;;;;;;28.49;56.45;99893.88;4898436;29;20044;-70
2023/08/26 07:16:58;;;;;;;7.28;5.25;;;;;;;28.49;56.26;99894.72;4898480;29;20131;-70
2023/08/26 07:19:26;;;;;;;8.98;5.53;;;;;;;28.48;56.25;99890.28;4898415;29;20048;-70
2023/08/26 07:21:54;;;;;;;10.15;5.65;;;;;;;28.50;56.18;99904.63;4898326;29;20048;-70
2023/08/26 07:24:24;;;;;;;7.88;5.22;;;;;;;28.52;56.52;99898.91;4898281;29;20077;-70
2023/08/26 07:26:52;;;;;;;8.57;5.32;;;;;;;28.52;56.34;99891.53;4898062;29;20155;-70
2023/08/26 07:29:20;;;;;;;8.02;5.43;;;;;;;28.52;56.38;99885.19;4898268;29;20052;-70
2023/08/26 07:31:48;;;;;;;9.30;5.90;;;;;;;28.52;56.24;99886.03;4898069;29;20084;-70
2023/08/26 07:34:16;;;;;;;8.25;5.25;;;;;;;28.54;56.32;99893.22;4904155;29;20052;-70
2023/08/26 07:36:44;;;;;;;7.65;5.55;;;;;;;28.54;56.43;99884.97;4915513;29;20045;-70
2023/08/26 07:39:13;;;;;;;8.88;5.72;;;;;;;28.55;56.09;99889.41;4897876;29;20056;-71
2023/08/26 07:41:43;;;;;;;8.60;6.03;;;;;;;28.56;56.14;99893.81;4897976;29;20135;-71
2023/08/26 07:44:11;;;;;;;10.35;5.97;;;;;;;28.55;56.28;99884.75;4904895;29;20059;-71
2023/08/26 07:46:39;;;;;;;8.82;5.85;;;;;;;28.55;56.49;99881.16;4912778;29;20501;-71
2023/08/26 07:49:10;;;;;;;9.60;6.28;;;;;;;28.55;56.12;99886.66;4916940;29;20191;-70
2023/08/26 07:51:38;;;;;;;6.93;6.05;;;;;;;28.56;56.30;99891.94;4916721;29;20516;-70
2023/08/26 07:54:09;;;;;;;9.85;6.82;;;;;;;28.56;56.08;99883.69;4917284;29;20052;-71
2023/08/26 07:56:37;;;;;;;12.15;6.82;;;;;;;28.56;55.97;99877.38;4918759;29;20108;-71
2023/08/26 07:59:06;;;;;;;9.07;6.20;;;;;;;28.57;56.17;99874.44;4921881;29;20104;-72
2023/08/26 08:01:34;;;;;;;8.35;6.50;;;;;;;28.58;56.22;99867.88;4923141;29;20074;-69
2023/08/26 08:04:03;;;;;;;10.43;6.70;;;;;;;28.58;56.00;99873.38;4924123;29;20055;-67
2023/08/26 08:06:31;;;;;;;10.35;7.15;;;;;;;28.60;55.76;99864.91;4922258;29;20138;-71
2023/08/26 08:08:59;;;;;;;11.82;7.50;;;;;;;28.61;55.88;99872.09;4921430;29;20107;-72
2023/08/26 08:11:27;;;;;;;10.38;7.03;;;;;;;28.61;55.67;99866.59;4920192;29;20165;-71
2023/08/26 08:13:56;;;;;;;11.00;7.45;;;;;;;28.62;55.81;99855.41;4917316;29;20056;-71
2023/08/26 08:16:25;;;;;;;8.90;6.85;;;;;;;28.61;56.01;99859.22;4916732;29;20147;-71
2023/08/26 08:18:55;;;;;;;11.02;6.63;;;;;;;28.63;55.64;99858.97;4898854;29;20107;-71
2023/08/26 08:21:23;;;;;;;9.77;7.05;;;;;;;28.62;55.72;99862.78;4897377;29;20108;-70
2023/08/26 08:23:55;;;;;;;9.98;7.28;;;;;;;28.66;55.77;99858.53;4897349;29;20490;-70
2023/08/26 08:26:23;;;;;;;8.73;6.97;;;;;;;28.65;55.90;99857.69;4897424;29;20128;-70
2023/08/26 08:28:52;;;;;;;8.43;7.07;;;;;;;28.67;55.74;99854.75;4897357;29;20743;-70
2023/08/26 08:31:20;;;;;;;10.93;7.43;;;;;;;28.65;55.83;99851.38;4897137;29;20056;-71
2023/08/26 08:33:49;;;;;;;9.07;7.07;;;;;;;28.65;55.91;99862.34;4897092;29;20068;-69
2023/08/26 08:36:18;;;;;;;9.73;7.30;;;;;;;28.68;55.69;99864.66;4897158;29;20424;-71
2023/08/26 08:38:46;;;;;;;11.30;7.60;;;;;;;28.68;55.36;99861.91;4896949;29;20060;-70
2023/08/26 08:41:14;;;;;;;10.40;7.78;;;;;;;28.70;55.16;99855.16;4897061;29;20048;-69
2023/08/26 08:43:46;;;;;;;10.05;7.93;;;;;;;28.71;54.43;99856.81;4896977;29;20104;-70
2023/08/26 08:46:15;;;;;;;10.90;7.90;;;;;;;28.72;54.71;99857.66;4896709;29;20087;-70
2023/08/26 08:48:43;;;;;;;9.02;7.72;;;;;;;28.74;54.11;99861.03;4896982;29;20080;-69
2023/08/26 08:51:14;;;;;;;13.20;7.97;;;;;;;28.75;54.39;99855.31;4896613;29;20136;-70
2023/08/26 08:53:46;;;;;;;10.23;7.80;;;;;;;28.76;54.23;99848.78;4896820;29;20075;-71
2023/08/26 08:56:17;;;;;;;11.90;7.97;;;;;;;28.77;54.26;99857.88;4896931;29;20482;-70
2023/08/26 08:58:48;;;;;;;9.07;7.68;;;;;;;28.77;54.19;99858.69;4896891;29;20076;-71
2023/08/26 09:01:19;;;;;;;11.50;8.45;;;;;;;28.76;54.26;99845.19;4896422;29;20048;-70
2023/08/26 09:03:48;;;;;;;11.73;8.63;;;;;;;28.79;54.36;99840.09;4895619;29;20056;-70
2023/08/26 09:06:18;;;;;;;9.77;8.18;;;;;;;28.82;54.17;99846.22;4896612;29;20403;-70
2023/08/26 09:08:48;;;;;;;12.20;8.50;;;;;;;28.82;53.96;99830.56;4892805;29;20049;-68
2023/08/26 09:11:16;;;;;;;10.80;8.60;;;;;;;28.83;54.14;99832.25;4878230;29;20057;-70
2023/08/26 09:13:45;;;;;;;16.13;8.82;;;;;;;28.85;53.99;99832.03;4878050;29;20483;-70
2023/08/26 09:16:13;;;;;;;11.18;9.07;;;;;;;28.85;53.92;99830.13;4883510;29;20132;-68
2023/08/26 09:18:44;;;;;;;14.05;9.35;;;;;;;28.87;53.86;99832.69;4896541;29;20084;-70
2023/08/26 09:21:13;;;;;;;12.68;9.68;;;;;;;28.88;53.29;99824.22;4896881;29;20044;-70
2023/08/26 09:23:44;;;;;;;12.18;9.70;;;;;;;28.92;53.24;99828.22;4897169;29;20080;-69
2023/08/26 09:26:14;;;;;;;12.18;9.07;;;;;;;28.96;52.62;99826.72;4896638;29;20052;-70
2023/08/26 09:28:48;;;;;;;14.43;9.57;;;;;;;28.97;53.05;99828.41;4895477;29;20487;-70
2023/08/26 09:31:16;;;;;;;13.50;9.95;;;;;;;29.00;52.68;99816.97;4896837;29;20480;-72
2023/08/26 09:33:50;;;;;;;13.95;9.35;;;;;;;29.04;52.63;99831.94;4897185;29;20092;-70
2023/08/26 09:36:18;;;;;;;11.73;9.38;;;;;;;29.06;52.84;99821.59;4897533;29;20068;-71
2023/08/26 09:38:50;;;;;;;13.02;9.88;;;;;;;29.08;52.46;99815.88;4897013;29;20468;-70
2023/08/26 09:41:21;;;;;;;13.43;9.55;;;;;;;29.11;52.65;99823.66;4896739;29;20080;-72
2023/08/26 09:43:50;;;;;;;14.80;9.20;;;;;;;29.11;52.98;99811.81;4896565;29;20076;-72
2023/08/26 09:46:19;;;;;;;12.95;9.20;;;;;;;29.14;52.33;99825.09;4896489;29;20053;-71
2023/08/26 09:48:48;;;;;;;12.93;9.20;;;;;;;29.15;52.35;99822.16;4894022;29;20052;-71
2023/08/26 09:51:29;;;;;;;12.65;9.55;;;;;;;29.19;52.22;99825.28;4893656;29;20443;-71
2023/08/26 09:54:00;;;;;;;12.35;9.60;;;;;;;29.23;52.13;99821.84;4893062;29;20522;-71
2023/08/26 09:56:28;;;;;;;12.70;8.82;;;;;;;29.26;51.85;99821.41;4893678;29;20356;-71
2023/08/26 09:58:57;;;;;;;16.67;9.55;;;;;;;29.28;51.90;99819.28;4893900;29;20110;-71
2023/08/26 10:01:26;;;;;;;11.77;8.65;;;;;;;29.34;51.72;99823.06;4893748;29;20109;-71
2023/08/26 10:04:04;;;;;;;12.98;9.15;;;;;;;29.37;51.76;99822.59;4894677;29;20052;-71
2023/08/26 10:06:37;;;;;;;16.48;9.60;;;;;;;29.40;51.50;99819.38;4895648;29;20095;-71
2023/08/26 10:09:09;;;;;;;11.10;8.68;;;;;;;29.42;51.41;99819.16;4896242;29;20053;-71
2023/08/26 10:11:38;;;;;;;;;;;;;;;29.44;51.27;99817.06;4897167;29;20053;-71
2023/08/26 10:14:12;;;;;;;16.08;8.82;;;;;;;29.48;51.14;99818.25;4899682;29;20334;-70
2023/08/26 10:16:44;;;;;;;12.20;8.77;;;;;;;29.51;51.11;99804.09;4899910;29;20411;-72
2023/08/26 10:19:13;;;;;;;;;;;;;;;29.52;50.98;99792.88;4900147;29;20060;-70
2023/08/26 10:21:43;;;;;;;10.80;8.60;;;;;;;29.55;50.83;99792.44;4899769;29;19929;-70
2023/08/26 10:24:13;;;;;;;10.93;8.10;;;;;;;29.56;50.69;99785.88;4899715;29;20059;-70
2023/08/26 10:26:41;;;;;;;11.65;8.50;;;;;;;29.59;50.66;99799.16;4899500;29;20052;-70
2023/08/26 10:29:10;;;;;;;13.57;8.65;;;;;;;29.61;50.60;99788.78;4899832;29;20067;-71
2023/08/26 10:31:39;;;;;;;11.82;8.70;;;;;;;29.65;50.50;99780.94;4899710;29;20058;-71
2023/08/26 10:34:16;;;;;;;12.45;8.13;;;;;;;29.66;50.39;99777.09;4899320;29;20060;-71
2023/08/26 10:36:48;;;;;;;11.90;8.45;;;;;;;29.71;50.07;99770.91;4899366;29;20123;-71
2023/08/26 10:39:19;;;;;;;11.07;7.93;;;;;;;29.73;49.90;99768.81;4899720;29;20044;-70
2023/08/26 10:42:09;;;;;;;12.73;8.25;;;;;;;29.76;49.54;99777.41;4899807;29;20048;-71
2023/08/26 10:44:38;;;;;;;10.20;8.05;;;;;;;29.80;49.29;99772.28;4899287;29;20420;-71
2023/08/26 10:47:07;;;;;;;11.27;8.32;;;;;;;29.82;49.27;99775.66;4899249;29;20104;-71
2023/08/26 10:49:35;;;;;;;13.90;8.48;;;;;;;29.86;48.94;99771.38;4899107;29;20151;-71
2023/08/26 10:52:18;;;;;;;11.50;7.88;;;;;;;29.92;48.70;99774.06;4899156;29;20053;-71
2023/08/26 10:54:48;;;;;;;10.90;7.78;;;;;;;29.99;48.44;99770.38;4899064;29;20082;-71
2023/08/26 10:57:16;;;;;;;11.95;8.13;;;;;;;30.02;48.45;99769.94;4899097;29;20048;-70
2023/08/26 10:59:45;;;;;;;13.32;8.10;;;;;;;30.04;48.17;99768.63;4898971;29;20099;-71
2023/08/26 11:02:13;;;;;;;11.48;8.00;;;;;;;30.07;48.11;99768.19;4898989;29;20052;-71
2023/08/26 11:04:43;;;;;;;15.27;8.70;;;;;;;30.10;48.15;99766.88;4898974;29;20060;-71
2023/08/26 11:07:16;;;;;;;11.02;8.55;;;;;;;30.17;47.79;99768.47;4899052;29;20045;-71
2023/08/26 11:09:44;;;;;;;12.63;8.60;;;;;;;30.23;47.45;99755.72;4898988;29;20052;-71
2023/08/26 11:12:27;;;;;;;12.23;8.00;;;;;;;30.31;47.06;99754.56;4898971;29;20422;-71
2023/08/26 11:15:03;;;;;;;13.10;8.23;;;;;;;30.33;47.08;99749.66;4898632;29;20514;-71
2023/08/26 11:17:32;;;;;;;10.48;7.93;;;;;;;30.35;47.30;99755.78;4898842;29;20048;-71
2023/08/26 11:20:19;;;;;;;13.77;8.77;;;;;;;30.41;46.83;99741.09;4899155;29;20045;-71
2023/08/26 11:22:47;;;;;;;10.02;8.00;;;;;;;30.44;46.53;99741.44;4898634;29;20049;-70
2023/08/26 11:25:15;;;;;;;11.82;8.52;;;;;;;30.47;46.46;99737.38;4898210;29;20048;-71
2023/08/26 11:27:45;;;;;;;11.02;7.93;;;;;;;30.49;46.90;99735.22;4898790;29;20104;-71
2023/08/26 11:30:14;;;;;;;12.13;8.40;;;;;;;30.49;46.83;99733.31;4898567;29;20080;-71
2023/08/26 11:32:43;;;;;;;10.98;8.23;;;;;;;30.52;47.10;99740.28;4898829;29;20048;-71
2023/08/26 11:35:14;;;;;;;12.82;8.48;;;;;;;30.57;46.43;99734.91;4898772;29;20387;-71
2023/08/26 11:37:44;;;;;;;12.30;7.60;;;;;;;30.63;46.15;99717.47;4898264;29;20513;-71
2023/08/26 11:40:15;;;;;;;11.45;8.10;;;;;;;30.65;46.29;99720.00;4898476;29;20059;-71
2023/08/26 11:42:45;;;;;;;11.27;8.10;;;;;;;30.70;46.16;99731.16;4898168;29;20048;-71